Currently 72°F in Perris, California, USA
72°F
77°F / 72°F
calm
0.00"
Sunday, September 15, 2019 1:04 AM PDT

Perris, California Weather Summary
Last 36 Hours

Temperature Winds Hourly Humidity Dewpoint
Time Report Norm Report Norm Max Gusts Precip. Rpt. Norm Rpt. Norm Pressure
1,3Sun 01:04 AM  71.8°F  68°F  calm  1 mph  none  0.00"  46%  68%  49°F  56°F  29.95"
Sun 01:00 AM  71.9°F  68°F  calm  1 mph  none  0.00"  46%  68%  49°F  56°F  29.96"
2Sun 12:00 AM  76.5°F  69°F  calm  1 mph  none  0.00"  41%  65%  50°F  56°F  29.95"
Sat 11:00 PM  79.0°F  70°F  calm  2 mph  4 mph  0.00"  38%  62%  50°F  56°F  29.96"
Sat 10:00 PM  82.3°F  72°F  2 mph NE  2 mph  10 mph  0.00"  33%  58%  49°F  56°F  29.96"
Sat 09:00 PM  84.1°F  74°F  3 mph NE  3 mph  9 mph  0.00"  33%  54%  51°F  55°F  29.95"
Sat 08:00 PM  86.1°F  76°F  4 mph W  4 mph  10 mph  0.00"  30%  49%  50°F  55°F  29.93"
Sat 07:00 PM  89.1°F  80°F  6 mph NW  4 mph  15 mph  0.00"  23%  42%  45°F  54°F  29.91"
Sat 06:00 PM  94.1°F  84°F  4 mph NW  6 mph  18 mph  0.00"  19%  34%  44°F  52°F  29.90"
Sat 05:00 PM  98.2°F  87°F  11 mph NW  7 mph  18 mph  0.00"  17%  30%  45°F  51°F  29.90"
Sat 04:00 PM  98.5°F  89°F  11 mph W  6 mph  19 mph  0.00"  15%  28%  41°F  51°F  29.90"
Sat 03:00 PM  101.0°F  90°F  7 mph W  6 mph  14 mph  0.00"  12%  27%  38°F  50°F  29.91"
Sat 02:00 PM  100.5°F  89°F  4 mph W  5 mph  17 mph  0.00"  14%  27%  40°F  49°F  29.93"
Sat 01:00 PM  97.8°F  88°F  7 mph SW  4 mph  15 mph  0.00"  14%  28%  39°F  50°F  29.95"
Sat 12:00 PM  97.7°F  86°F  5 mph NW  3 mph  8 mph  0.00"  15%  32%  40°F  51°F  29.97"
Sat 11:00 AM  93.6°F  82°F  calm  2 mph  5 mph  0.00"  19%  40%  44°F  54°F  30.00"
Sat 10:00 AM  87.4°F  77°F  1 mph SE  2 mph  3 mph  0.00"  29%  51%  50°F  56°F  30.01"
Sat 09:00 AM  76.3°F  71°F  calm  1 mph  4 mph  0.00"  48%  64%  54°F  58°F  30.01"
Sat 08:00 AM  67.1°F  64°F  calm  1 mph  none  0.00"  59%  76%  52°F  56°F  30.00"
Sat 07:00 AM  65.6°F  63°F  calm  1 mph  none  0.00"  59%  77%  50°F  55°F  29.99"
Sat 06:00 AM  65.3°F  63°F  calm  1 mph  none  0.00"  62%  76%  52°F  55°F  29.98"
Sat 05:00 AM  66.8°F  64°F  calm  1 mph  none  0.00"  60%  75%  52°F  56°F  29.98"
Sat 04:00 AM  68.3°F  65°F  calm  1 mph  none  0.00"  58%  73%  52°F  56°F  29.97"
Sat 03:00 AM  70.6°F  66°F  calm  1 mph  1 mph  0.00"  57%  71%  54°F  56°F  29.97"
Sat 02:00 AM  70.3°F  67°F  1 mph S  1 mph  3 mph  0.00"  57%  69%  54°F  56°F  29.98"
Sat 01:00 AM  72.0°F  68°F  calm  1 mph  3 mph  0.00"  57%  67%  56°F  56°F  29.98"
Sat 12:00 AM  74.5°F  69°F  calm  1 mph  3 mph  0.00"  51%  65%  55°F  56°F  29.98"
Fri 11:00 PM  79.1°F  70°F  calm  2 mph  none  0.00"  41%  62%  53°F  56°F  29.98"
Fri 10:00 PM  81.4°F  72°F  calm  2 mph  7 mph  0.00"  36%  58%  51°F  56°F  29.97"
Fri 09:00 PM  82.9°F  74°F  4 mph E  3 mph  10 mph  0.00"  40%  54%  55°F  55°F  29.96"
Fri 08:00 PM  85.3°F  76°F  8 mph NW  4 mph  10 mph  0.00"  40%  49%  57°F  55°F  29.95"
Fri 07:00 PM  89.7°F  80°F  5 mph NW  5 mph  13 mph  0.00"  21%  42%  44°F  54°F  29.92"
Fri 06:00 PM  93.8°F  85°F  7 mph NW  6 mph  17 mph  0.00"  21%  34%  47°F  52°F  29.91"
Fri 05:00 PM  97.0°F  88°F  7 mph W  7 mph  17 mph  0.00"  21%  30%  49°F  51°F  29.91"
Fri 04:00 PM  99.4°F  89°F  5 mph NW  6 mph  13 mph  0.00"  10%  28%  32°F  51°F  29.91"
Fri 03:00 PM  99.8°F  90°F  4 mph S  6 mph  13 mph  0.00"  10%  27%  32°F  50°F  29.93"
Fri 02:00 PM  98.1°F  89°F  3 mph W  5 mph  10 mph  0.00"  12%  27%  35°F  50°F  29.95"

  1. Current weather data. No green row appears if the current weather data is also the high or low for the current day.
  2. High temperature for the current day.
  3. Low temperature for the current day.

The Perris, California weather pages are a service of WeatherCurrents. Perris is located in Southern California's Inland Empire, south of Riverside and north of Sun City, along the Interstate 215 freeway.
Copyright ©2019  WeatherCurrents. All rights reserved. - Submit questions and comments - Privacy Policy

This page automatically refreshes every 10 minutes.